createdAt,value
2018-04-12T00:00:43.769Z,0.00
2018-04-12T00:01:43.697Z,0.00
2018-04-12T00:02:43.627Z,0.00
2018-04-12T00:03:43.543Z,0.00
2018-04-12T00:04:43.470Z,0.00
2018-04-12T00:05:43.390Z,0.00
2018-04-12T00:06:43.319Z,0.00
2018-04-12T00:07:43.238Z,0.00
2018-04-12T00:08:43.163Z,0.00
2018-04-12T00:09:43.089Z,0.00
2018-04-12T00:10:43.012Z,0.00
2018-04-12T00:11:42.946Z,0.00
2018-04-12T00:12:42.860Z,0.00
2018-04-12T00:13:42.786Z,0.00
2018-04-12T00:14:42.708Z,0.00
2018-04-12T00:15:42.646Z,0.00
2018-04-12T00:16:42.558Z,0.00
2018-04-12T00:17:42.481Z,0.00
2018-04-12T00:18:42.405Z,0.00
2018-04-12T00:19:42.331Z,0.00
2018-04-12T00:20:42.254Z,0.00
2018-04-12T00:21:42.182Z,0.00
2018-04-12T00:22:42.104Z,0.00
2018-04-12T00:23:42.027Z,0.00
2018-04-12T00:24:41.949Z,0.00
2018-04-12T00:25:41.872Z,0.00
2018-04-12T00:26:41.801Z,0.00
2018-04-12T00:27:41.721Z,0.00
2018-04-12T00:28:41.645Z,0.00
2018-04-12T00:29:41.572Z,0.00
2018-04-12T00:30:41.500Z,0.00
2018-04-12T00:31:41.417Z,0.00
2018-04-12T00:32:41.344Z,0.00
2018-04-12T00:33:41.310Z,0.00
2018-04-12T00:34:41.197Z,0.00
2018-04-12T00:35:41.112Z,0.00
2018-04-12T00:36:41.039Z,0.00
2018-04-12T00:37:40.965Z,0.00
2018-04-12T00:38:40.885Z,0.00
2018-04-12T00:39:40.811Z,0.00
2018-04-12T00:40:40.734Z,0.00
2018-04-12T00:41:40.663Z,0.00
2018-04-12T00:42:40.581Z,0.00
2018-04-12T00:43:40.511Z,0.00
2018-04-12T00:44:40.427Z,0.00
2018-04-12T00:45:40.354Z,0.00
2018-04-12T00:46:40.278Z,0.00
2018-04-12T00:47:40.203Z,0.00
2018-04-12T00:48:40.125Z,0.00
2018-04-12T00:49:40.050Z,0.00
2018-04-12T00:50:39.973Z,0.00
2018-04-12T00:51:39.900Z,0.00
2018-04-12T00:52:39.820Z,0.00
2018-04-12T00:53:39.757Z,0.00
2018-04-12T00:54:39.674Z,0.00
2018-04-12T00:55:39.592Z,0.00
2018-04-12T00:56:39.513Z,0.00
2018-04-12T00:57:39.441Z,0.00
2018-04-12T00:58:39.366Z,0.00
2018-04-12T00:59:39.291Z,0.00
2018-04-12T01:00:39.212Z,0.00
2018-04-12T01:01:39.136Z,0.00
2018-04-12T01:02:39.061Z,0.00
2018-04-12T01:03:38.992Z,0.00
2018-04-12T01:04:38.919Z,0.00
2018-04-12T01:05:38.834Z,0.00
2018-04-12T01:06:38.756Z,0.00
2018-04-12T01:07:38.682Z,0.00
2018-04-12T01:08:38.605Z,0.00
2018-04-12T01:09:38.545Z,0.00
2018-04-12T01:10:38.454Z,0.00
2018-04-12T01:11:38.385Z,0.00
2018-04-12T01:12:38.299Z,0.00
2018-04-12T01:13:38.224Z,0.00
2018-04-12T01:14:38.147Z,0.00
2018-04-12T01:15:38.076Z,0.00
2018-04-12T01:16:37.994Z,0.00
2018-04-12T01:17:37.918Z,0.00
2018-04-12T01:18:37.842Z,0.00
2018-04-12T01:19:37.770Z,0.00
2018-04-12T01:20:37.701Z,0.00
2018-04-12T01:21:37.616Z,0.00
2018-04-12T01:22:37.538Z,0.00
2018-04-12T01:23:37.462Z,0.00
2018-04-12T01:24:37.387Z,0.00
2018-04-12T01:25:37.318Z,0.00
2018-04-12T01:26:37.230Z,0.00
2018-04-12T01:27:37.155Z,0.00
2018-04-12T01:28:37.077Z,0.00
2018-04-12T01:29:37.003Z,0.00
2018-04-12T01:30:36.927Z,0.00
2018-04-12T01:31:36.853Z,0.00
2018-04-12T01:32:36.775Z,0.00
2018-04-12T01:33:36.698Z,0.00
2018-04-12T01:34:36.641Z,0.00
2018-04-12T01:35:36.546Z,0.00
2018-04-12T01:36:36.474Z,0.00
2018-04-12T01:37:36.395Z,0.00
2018-04-12T01:38:36.323Z,0.00
2018-04-12T01:39:36.240Z,0.00
2018-04-12T01:40:36.166Z,0.00
2018-04-12T01:41:36.088Z,0.00
2018-04-12T01:42:36.011Z,0.00
2018-04-12T01:43:35.985Z,0.00
2018-04-12T01:44:35.861Z,0.00
2018-04-12T01:45:35.783Z,0.00
2018-04-12T01:46:35.706Z,0.00
2018-04-12T01:47:35.628Z,0.00
2018-04-12T01:48:35.553Z,0.00
2018-04-12T01:49:35.474Z,0.00
2018-04-12T01:50:35.398Z,0.00
2018-04-12T01:51:35.324Z,0.00
2018-04-12T01:52:35.246Z,0.00
2018-04-12T01:53:35.189Z,0.00
2018-04-12T01:54:35.093Z,0.00
2018-04-12T01:55:35.021Z,0.00
2018-04-12T01:56:34.942Z,0.00
2018-04-12T01:57:34.864Z,0.00
2018-04-12T01:58:34.787Z,0.00
2018-04-12T01:59:34.711Z,0.00
2018-04-12T02:00:34.637Z,0.00
2018-04-12T02:01:34.561Z,0.00
2018-04-12T02:02:34.486Z,0.00
2018-04-12T02:03:34.408Z,0.00
2018-04-12T02:04:34.334Z,0.00
2018-04-12T02:05:34.253Z,0.00
2018-04-12T02:06:34.188Z,0.00
2018-04-12T02:07:34.108Z,0.00
2018-04-12T02:08:34.043Z,0.00
2018-04-12T02:09:33.956Z,0.00
2018-04-12T02:10:33.875Z,0.00
2018-04-12T02:11:33.796Z,0.00
2018-04-12T02:12:33.722Z,0.00
2018-04-12T02:13:33.646Z,0.00
2018-04-12T02:14:33.567Z,0.00
2018-04-12T02:15:33.503Z,0.00
2018-04-12T02:16:33.415Z,0.00
2018-04-12T02:17:33.342Z,0.00
2018-04-12T02:18:33.263Z,0.00
2018-04-12T02:19:33.192Z,0.00
2018-04-12T02:20:33.115Z,0.00
2018-04-12T02:21:33.034Z,0.00
2018-04-12T02:22:32.960Z,0.00
2018-04-12T02:23:32.884Z,0.00
2018-04-12T02:24:32.808Z,0.00
2018-04-12T02:25:32.730Z,0.00
2018-04-12T02:26:32.650Z,0.00
2018-04-12T02:27:32.597Z,0.00
2018-04-12T02:28:32.498Z,0.00
2018-04-12T02:29:32.424Z,0.00
2018-04-12T02:30:32.346Z,0.00
2018-04-12T02:31:32.271Z,0.00
2018-04-12T02:32:32.194Z,0.00
2018-04-12T02:33:32.127Z,0.00
2018-04-12T02:34:32.041Z,0.00
2018-04-12T02:35:31.966Z,0.00
2018-04-12T02:36:31.890Z,0.00
2018-04-12T02:37:31.814Z,0.00
2018-04-12T02:38:31.742Z,0.00
2018-04-12T02:39:31.662Z,0.00
2018-04-12T02:40:31.587Z,0.00
2018-04-12T02:41:31.507Z,0.00
2018-04-12T02:42:31.433Z,0.00
2018-04-12T02:43:31.357Z,0.00
2018-04-12T02:44:31.279Z,0.00
2018-04-12T02:45:31.206Z,0.00
2018-04-12T02:46:31.128Z,0.00
2018-04-12T02:47:31.051Z,0.00
2018-04-12T02:48:30.980Z,0.00
2018-04-12T02:49:30.908Z,0.00
2018-04-12T02:50:30.824Z,0.00
2018-04-12T02:51:30.749Z,0.00
2018-04-12T02:52:30.672Z,0.00
2018-04-12T02:53:30.594Z,0.00
2018-04-12T02:54:30.517Z,0.00
2018-04-12T02:55:30.443Z,0.00
2018-04-12T02:56:30.367Z,0.00
2018-04-12T02:57:30.291Z,0.00
2018-04-12T02:58:30.215Z,0.00
2018-04-12T02:59:30.143Z,0.00
2018-04-12T03:00:30.061Z,0.00
2018-04-12T03:01:29.986Z,0.00
2018-04-12T03:02:29.910Z,0.00
2018-04-12T03:03:29.838Z,0.00
2018-04-12T03:04:29.769Z,0.00
2018-04-12T03:05:29.681Z,0.00
2018-04-12T03:06:29.605Z,0.00
2018-04-12T03:07:29.529Z,0.00
2018-04-12T03:08:29.456Z,0.00
2018-04-12T03:09:29.383Z,0.00
2018-04-12T03:10:29.300Z,0.00
2018-04-12T03:11:29.225Z,0.00
2018-04-12T03:12:29.147Z,0.00
2018-04-12T03:13:29.077Z,0.00
2018-04-12T03:14:29.008Z,0.00
2018-04-12T03:15:28.921Z,0.00
2018-04-12T03:16:28.843Z,0.00
2018-04-12T03:17:28.771Z,0.00
2018-04-12T03:18:28.695Z,0.00
2018-04-12T03:19:28.619Z,0.00
2018-04-12T03:20:28.542Z,0.00
2018-04-12T03:21:28.473Z,0.00
2018-04-12T03:22:28.389Z,0.00
2018-04-12T03:23:28.325Z,0.00
2018-04-12T03:24:28.241Z,0.00
2018-04-12T03:25:28.182Z,0.00
2018-04-12T03:26:28.092Z,0.00
2018-04-12T03:27:28.010Z,0.00
2018-04-12T03:28:27.932Z,0.00
2018-04-12T03:29:27.859Z,0.00
2018-04-12T03:30:27.792Z,0.00
2018-04-12T03:31:27.707Z,0.00
2018-04-12T03:32:27.632Z,0.00
2018-04-12T03:33:27.556Z,0.00
2018-04-12T03:34:27.480Z,0.00
2018-04-12T03:35:27.404Z,0.00
2018-04-12T03:36:27.329Z,0.00
2018-04-12T03:37:27.253Z,0.00
2018-04-12T03:38:27.177Z,0.00
2018-04-12T03:39:27.102Z,0.00
2018-04-12T03:40:27.025Z,0.00
2018-04-12T03:41:26.954Z,0.00
2018-04-12T03:42:26.872Z,0.00
2018-04-12T03:43:26.798Z,0.00
2018-04-12T03:44:27.395Z,0.00
2018-04-12T03:45:26.645Z,0.00
2018-04-12T03:46:26.585Z,0.00
2018-04-12T03:47:26.495Z,0.00
2018-04-12T03:48:26.417Z,0.00
2018-04-12T03:49:26.419Z,0.00
2018-04-12T03:50:26.288Z,0.00
2018-04-12T03:51:26.191Z,0.00
2018-04-12T03:52:26.117Z,0.00
2018-04-12T03:53:26.038Z,0.00
2018-04-12T03:54:25.964Z,0.00
2018-04-12T03:55:25.888Z,0.00
2018-04-12T03:56:25.814Z,0.00
2018-04-12T03:57:25.736Z,0.00
2018-04-12T03:58:25.660Z,0.00
2018-04-12T03:59:25.630Z,0.00
2018-04-12T04:00:25.513Z,0.00
2018-04-12T04:01:25.435Z,0.00
2018-04-12T04:02:25.357Z,0.00
2018-04-12T04:03:25.283Z,0.00
2018-04-12T04:04:25.207Z,4.00
2018-04-12T04:05:25.131Z,4.00
2018-04-12T04:06:25.054Z,0.00
2018-04-12T04:07:25.027Z,0.00
2018-04-12T04:08:24.902Z,0.00
2018-04-12T04:09:24.831Z,4.00
2018-04-12T04:10:24.762Z,4.00
2018-04-12T04:11:24.677Z,0.00
2018-04-12T04:12:24.598Z,4.00
2018-04-12T04:13:24.524Z,4.00
2018-04-12T04:14:24.462Z,8.00
2018-04-12T04:15:24.402Z,4.00
2018-04-12T04:16:24.296Z,8.00
2018-04-12T04:17:24.221Z,8.00
2018-04-12T04:18:24.145Z,8.00
2018-04-12T04:19:24.069Z,12.00
2018-04-12T04:20:23.998Z,12.00
2018-04-12T04:21:23.918Z,12.00
2018-04-12T04:22:23.843Z,12.00
2018-04-12T04:23:23.770Z,16.00
2018-04-12T04:24:23.692Z,16.00
2018-04-12T04:25:23.642Z,16.00
2018-04-12T04:26:23.539Z,16.00
2018-04-12T04:27:23.463Z,24.00
2018-04-12T04:28:23.390Z,24.00
2018-04-12T04:29:23.315Z,28.00
2018-04-12T04:30:23.239Z,28.00
2018-04-12T04:31:23.163Z,32.00
2018-04-12T04:32:23.091Z,32.00
2018-04-12T04:33:23.017Z,36.00
2018-04-12T04:34:22.936Z,36.00
2018-04-12T04:35:22.866Z,36.00
2018-04-12T04:36:22.787Z,44.00
2018-04-12T04:37:22.709Z,48.00
2018-04-12T04:38:22.633Z,52.00
2018-04-12T04:39:22.560Z,56.00
2018-04-12T04:40:22.483Z,56.00
2018-04-12T04:41:22.409Z,60.00
2018-04-12T04:42:22.333Z,64.00
2018-04-12T04:43:22.259Z,64.00
2018-04-12T04:44:22.182Z,72.00
2018-04-12T04:45:22.104Z,76.00
2018-04-12T04:46:22.035Z,76.00
2018-04-12T04:47:21.954Z,80.00
2018-04-12T04:48:21.877Z,88.00
2018-04-12T04:49:21.805Z,92.00
2018-04-12T04:50:21.729Z,92.00
2018-04-12T04:51:21.659Z,100.00
2018-04-12T04:52:21.589Z,104.00
2018-04-12T04:53:21.500Z,104.00
2018-04-12T04:54:21.427Z,112.00
2018-04-12T04:55:21.352Z,116.00
2018-04-12T04:56:21.273Z,124.00
2018-04-12T04:57:21.197Z,132.00
2018-04-12T04:58:21.123Z,136.00
2018-04-12T04:59:21.048Z,136.00
2018-04-12T05:00:20.971Z,144.00
2018-04-12T05:01:20.897Z,148.00
2018-04-12T05:02:20.820Z,152.00
2018-04-12T05:03:20.745Z,156.00
2018-04-12T05:04:20.669Z,164.00
2018-04-12T05:05:20.596Z,172.00
2018-04-12T05:06:20.541Z,172.00
2018-04-12T05:07:20.482Z,176.00
2018-04-12T05:08:20.370Z,180.00
2018-04-12T05:09:20.291Z,180.00
2018-04-12T05:10:20.219Z,184.00
2018-04-12T05:11:20.141Z,192.00
2018-04-12T05:12:20.074Z,200.00
2018-04-12T05:13:20.028Z,216.00
2018-04-12T05:14:19.916Z,228.00
2018-04-12T05:15:19.837Z,240.00
2018-04-12T05:16:19.764Z,252.00
2018-04-12T05:17:19.685Z,260.00
2018-04-12T05:18:19.619Z,272.00
2018-04-12T05:19:19.540Z,284.00
2018-04-12T05:20:19.478Z,296.00
2018-04-12T05:21:19.388Z,296.00
2018-04-12T05:22:19.309Z,300.00
2018-04-12T05:23:19.233Z,304.00
2018-04-12T05:24:19.159Z,308.00
2018-04-12T05:25:19.090Z,316.00
2018-04-12T05:26:19.008Z,328.00
2018-04-12T05:27:18.947Z,344.00
2018-04-12T05:28:18.863Z,364.00
2018-04-12T05:29:18.781Z,384.00
2018-04-12T05:30:18.708Z,408.00
2018-04-12T05:31:18.673Z,428.00
2018-04-12T05:32:18.555Z,452.00
2018-04-12T05:33:18.479Z,468.00
2018-04-12T05:34:18.404Z,492.00
2018-04-12T05:35:18.355Z,512.00
2018-04-12T05:36:18.254Z,536.00
2018-04-12T05:37:18.178Z,564.00
2018-04-12T05:38:18.103Z,600.00
2018-04-12T05:39:18.027Z,640.00
2018-04-12T05:40:17.951Z,684.00
2018-04-12T05:41:17.877Z,728.00
2018-04-12T05:42:18.341Z,756.00
2018-04-12T05:43:17.744Z,768.00
2018-04-12T05:44:17.651Z,776.00
2018-04-12T05:45:17.577Z,784.00
2018-04-12T05:46:17.499Z,812.00
2018-04-12T05:47:17.424Z,844.00
2018-04-12T05:48:17.351Z,876.00
2018-04-12T05:49:17.273Z,896.00
2018-04-12T05:50:17.200Z,888.00
2018-04-12T05:51:17.122Z,884.00
2018-04-12T05:52:17.049Z,896.00
2018-04-12T05:53:16.977Z,928.00
2018-04-12T05:54:16.897Z,960.00
2018-04-12T05:55:16.824Z,988.00
2018-04-12T05:56:16.749Z,1008.00
2018-04-12T05:57:16.673Z,1004.00
2018-04-12T05:58:16.616Z,1016.00
2018-04-12T05:59:16.523Z,1048.00
2018-04-12T06:00:16.445Z,1096.00
2018-04-12T06:01:16.370Z,1148.00
2018-04-12T06:02:16.296Z,1208.00
2018-04-12T06:03:16.239Z,1268.00
2018-04-12T06:04:16.147Z,1368.00
2018-04-12T06:05:16.072Z,1444.00
2018-04-12T06:06:15.995Z,1540.00
2018-04-12T06:07:15.920Z,1568.00
2018-04-12T06:08:15.847Z,1532.00
2018-04-12T06:09:15.778Z,1508.00
2018-04-12T06:10:15.697Z,1480.00
2018-04-12T06:11:15.620Z,1440.00
2018-04-12T06:12:15.547Z,1400.00
2018-04-12T06:13:15.536Z,1320.00
2018-04-12T06:14:16.016Z,1184.00
2018-04-12T06:15:15.350Z,1092.00
2018-04-12T06:16:15.245Z,1056.00
2018-04-12T06:17:15.172Z,1064.00
2018-04-12T06:18:15.101Z,1120.00
2018-04-12T06:19:15.028Z,1160.00
2018-04-12T06:20:14.952Z,1332.00
2018-04-12T06:21:14.872Z,1848.00
2018-04-12T06:22:14.800Z,2172.00
2018-04-12T06:23:14.721Z,2268.00
2018-04-12T06:24:14.644Z,1332.00
2018-04-12T06:25:14.590Z,1984.00
2018-04-12T06:26:14.497Z,1900.00
2018-04-12T06:27:14.421Z,1824.00
2018-04-12T06:28:14.361Z,2204.00
2018-04-12T06:29:14.285Z,2316.00
2018-04-12T06:30:14.250Z,2304.00
2018-04-12T06:31:14.126Z,2292.00
2018-04-12T06:32:14.047Z,2264.00
2018-04-12T06:33:13.972Z,2280.00
2018-04-12T06:34:13.897Z,2276.00
2018-04-12T06:35:13.821Z,2276.00
2018-04-12T06:36:13.748Z,2280.00
2018-04-12T06:37:13.671Z,2280.00
2018-04-12T06:38:13.597Z,2284.00
2018-04-12T06:39:13.522Z,2276.00
2018-04-12T06:40:13.448Z,2280.00
2018-04-12T06:41:13.372Z,2292.00
2018-04-12T06:42:13.304Z,2260.00
2018-04-12T06:43:13.232Z,2212.00
2018-04-12T06:44:13.155Z,2244.00
2018-04-12T06:45:13.076Z,2172.00
2018-04-12T06:46:12.998Z,2136.00
2018-04-12T06:47:12.926Z,2164.00
2018-04-12T06:48:12.869Z,2224.00
2018-04-12T06:49:12.780Z,2240.00
2018-04-12T06:50:12.701Z,2260.00
2018-04-12T06:51:12.626Z,2232.00
2018-04-12T06:52:12.551Z,2228.00
2018-04-12T06:53:12.478Z,2264.00
2018-04-12T06:54:12.404Z,2236.00
2018-04-12T06:55:12.327Z,2308.00
2018-04-12T06:56:12.264Z,2212.00
2018-04-12T06:57:12.177Z,2204.00
2018-04-12T06:58:12.121Z,2324.00
2018-04-12T06:59:12.032Z,2296.00
2018-04-12T07:00:11.957Z,2244.00
2018-04-12T07:01:11.884Z,2136.00
2018-04-12T07:02:11.807Z,1900.00
2018-04-12T07:03:11.778Z,1664.00
2018-04-12T07:04:11.656Z,1456.00
2018-04-12T07:05:11.581Z,1384.00
2018-04-12T07:06:11.506Z,1368.00
2018-04-12T07:07:11.436Z,1332.00
2018-04-12T07:08:11.362Z,1328.00
2018-04-12T07:09:11.283Z,1400.00
2018-04-12T07:10:11.212Z,1468.00
2018-04-12T07:11:11.139Z,1688.00
2018-04-12T07:12:11.064Z,1516.00
2018-04-12T07:13:11.003Z,1444.00
2018-04-12T07:14:10.911Z,1544.00
2018-04-12T07:15:10.837Z,1804.00
2018-04-12T07:16:10.768Z,1640.00
2018-04-12T07:17:10.688Z,1712.00
2018-04-12T07:18:10.629Z,1480.00
2018-04-12T07:19:10.550Z,1708.00
2018-04-12T07:20:10.464Z,2440.00
2018-04-12T07:21:10.390Z,1996.00
2018-04-12T07:22:10.341Z,2476.00
2018-04-12T07:23:10.244Z,2608.00
2018-04-12T07:24:10.168Z,2584.00
2018-04-12T07:25:10.095Z,2572.00
2018-04-12T07:26:10.021Z,2560.00
2018-04-12T07:27:09.961Z,2556.00
2018-04-12T07:28:09.869Z,2564.00
2018-04-12T07:29:09.797Z,2560.00
2018-04-12T07:30:09.763Z,2572.00
2018-04-12T07:31:09.654Z,2584.00
2018-04-12T07:32:09.585Z,2604.00
2018-04-12T07:33:09.502Z,2640.00
2018-04-12T07:34:09.425Z,2660.00
2018-04-12T07:35:09.406Z,2588.00
2018-04-12T07:36:09.277Z,2728.00
2018-04-12T07:37:09.217Z,2712.00
2018-04-12T07:38:09.131Z,2680.00
2018-04-12T07:39:09.057Z,2608.00
2018-04-12T07:40:08.986Z,2580.00
2018-04-12T07:41:08.914Z,2548.00
2018-04-12T07:42:08.836Z,2572.00
2018-04-12T07:43:08.762Z,2500.00
2018-04-12T07:44:08.687Z,2564.00
2018-04-12T07:45:08.628Z,2700.00
2018-04-12T07:46:08.558Z,2756.00
2018-04-12T07:47:08.465Z,2768.00
2018-04-12T07:48:08.391Z,2764.00
2018-04-12T07:49:08.320Z,2716.00
2018-04-12T07:50:08.261Z,2680.00
2018-04-12T07:51:08.172Z,2636.00
2018-04-12T07:52:08.099Z,2800.00
2018-04-12T07:53:08.024Z,2500.00
2018-04-12T07:54:07.952Z,2504.00
2018-04-12T07:55:07.883Z,2472.00
2018-04-12T07:56:07.805Z,2596.00
2018-04-12T07:57:07.730Z,2796.00
2018-04-12T07:58:07.656Z,2948.00
2018-04-12T07:59:07.583Z,2796.00
2018-04-12T08:00:07.518Z,2348.00
2018-04-12T08:01:07.436Z,2836.00
2018-04-12T08:02:07.418Z,2956.00
2018-04-12T08:03:07.294Z,3176.00
2018-04-12T08:04:07.217Z,2940.00
2018-04-12T08:05:07.142Z,2912.00
2018-04-12T08:06:07.069Z,3216.00
2018-04-12T08:07:06.997Z,3240.00
2018-04-12T08:08:06.923Z,2884.00
2018-04-12T08:09:06.857Z,2652.00
2018-04-12T08:10:06.776Z,2864.00
2018-04-12T08:11:06.703Z,3412.00
2018-04-12T08:12:06.631Z,3672.00
2018-04-12T08:13:06.557Z,3736.00
2018-04-12T08:14:06.483Z,3952.00
2018-04-12T08:15:06.413Z,3676.00
2018-04-12T08:16:06.335Z,3692.00
2018-04-12T08:17:06.265Z,3752.00
2018-04-12T08:18:06.219Z,3484.00
2018-04-12T08:19:06.123Z,3100.00
2018-04-12T08:20:06.045Z,2072.00
2018-04-12T08:21:05.979Z,2468.00
2018-04-12T08:22:05.903Z,2212.00
2018-04-12T08:23:05.829Z,3096.00
2018-04-12T08:24:05.753Z,3144.00
2018-04-12T08:25:05.686Z,3184.00
2018-04-12T08:26:05.610Z,3224.00
2018-04-12T08:27:05.540Z,3348.00
2018-04-12T08:28:05.464Z,3448.00
2018-04-12T08:29:05.389Z,3384.00
2018-04-12T08:30:05.319Z,3228.00
2018-04-12T08:31:05.247Z,3184.00
2018-04-12T08:32:05.174Z,3052.00
2018-04-12T08:33:05.105Z,2800.00
2018-04-12T08:34:05.038Z,2572.00
2018-04-12T08:35:04.956Z,2328.00
2018-04-12T08:36:04.895Z,2128.00
2018-04-12T08:37:04.815Z,2048.00
2018-04-12T08:38:04.751Z,2252.00
2018-04-12T08:39:04.666Z,2352.00
2018-04-12T08:40:04.594Z,2024.00
2018-04-12T08:41:04.572Z,1972.00
2018-04-12T08:42:04.450Z,2188.00
2018-04-12T08:43:04.380Z,2192.00
2018-04-12T08:44:04.302Z,2316.00
2018-04-12T08:45:04.234Z,1956.00
2018-04-12T08:46:04.158Z,1968.00
2018-04-12T08:47:04.087Z,1884.00
2018-04-12T08:48:04.013Z,2104.00
2018-04-12T08:49:03.950Z,2000.00
2018-04-12T08:50:03.872Z,1856.00
2018-04-12T08:51:03.797Z,2000.00
2018-04-12T08:52:03.786Z,1992.00
2018-04-12T08:53:03.652Z,2460.00
2018-04-12T08:54:03.579Z,2632.00
2018-04-12T08:55:03.521Z,2664.00
2018-04-12T08:56:03.440Z,2704.00
2018-04-12T08:57:03.362Z,2732.00
2018-04-12T08:58:03.311Z,2744.00
2018-04-12T08:59:03.219Z,2752.00
2018-04-12T09:00:03.147Z,2824.00
2018-04-12T09:01:03.078Z,2900.00
2018-04-12T09:02:03.001Z,2960.00
2018-04-12T09:03:02.932Z,3044.00
2018-04-12T09:04:02.856Z,3136.00
2018-04-12T09:05:02.790Z,3268.00
2018-04-12T09:06:02.710Z,3408.00
2018-04-12T09:07:02.636Z,3588.00
2018-04-12T09:08:02.570Z,3800.00
2018-04-12T09:09:02.504Z,3952.00
2018-04-12T09:10:02.421Z,4028.00
2018-04-12T09:11:02.362Z,4148.00
2018-04-12T09:12:02.277Z,4216.00
2018-04-12T09:13:02.227Z,4500.00
2018-04-12T09:14:02.133Z,4724.00
2018-04-12T09:15:02.062Z,4844.00
2018-04-12T09:16:02.034Z,5008.00
2018-04-12T09:17:01.918Z,5128.00
2018-04-12T09:18:01.901Z,5168.00
2018-04-12T09:19:01.773Z,5280.00
2018-04-12T09:20:01.701Z,5288.00
2018-04-12T09:21:01.628Z,5384.00
2018-04-12T09:22:01.558Z,5432.00
2018-04-12T09:23:01.488Z,5520.00
2018-04-12T09:24:01.414Z,5652.00
2018-04-12T09:25:01.351Z,5800.00
2018-04-12T09:26:01.278Z,5940.00
2018-04-12T09:27:01.201Z,6092.00
2018-04-12T09:28:01.130Z,6184.00
2018-04-12T09:29:01.058Z,6332.00
2018-04-12T09:30:00.988Z,6432.00
2018-04-12T09:31:00.916Z,6520.00
2018-04-12T09:32:00.844Z,6592.00
2018-04-12T09:33:00.773Z,6648.00
2018-04-12T09:34:00.702Z,6704.00
2018-04-12T09:35:00.632Z,6700.00
2018-04-12T09:36:00.559Z,6756.00
2018-04-12T09:37:00.497Z,6736.00
2018-04-12T09:38:00.423Z,6732.00
2018-04-12T09:39:00.352Z,6668.00
2018-04-12T09:40:00.274Z,6620.00
2018-04-12T09:41:00.225Z,6484.00
2018-04-12T09:42:00.135Z,6340.00
2018-04-12T09:43:00.065Z,6124.00
2018-04-12T09:43:59.992Z,5900.00
2018-04-12T09:44:59.922Z,5696.00
2018-04-12T09:45:59.867Z,5560.00
2018-04-12T09:46:59.792Z,5436.00
2018-04-12T09:47:59.711Z,5372.00
2018-04-12T09:48:59.646Z,5468.00
2018-04-12T09:49:59.572Z,5612.00
2018-04-12T09:50:59.501Z,5708.00
2018-04-12T09:51:59.498Z,5796.00
2018-04-12T09:52:59.360Z,5820.00
2018-04-12T09:53:59.292Z,5836.00
2018-04-12T09:54:59.222Z,5868.00
2018-04-12T09:55:59.146Z,5896.00
2018-04-12T09:56:59.078Z,5972.00
2018-04-12T09:57:59.014Z,6128.00
2018-04-12T09:58:58.937Z,6368.00
2018-04-12T09:59:58.906Z,6620.00
2018-04-12T10:00:58.796Z,6972.00
2018-04-12T10:01:58.726Z,7328.00
2018-04-12T10:02:58.656Z,7448.00
2018-04-12T10:03:58.587Z,7860.00
2018-04-12T10:04:58.565Z,7844.00
2018-04-12T10:05:58.446Z,7832.00
2018-04-12T10:06:58.385Z,7740.00
2018-04-12T10:07:58.308Z,7816.00
2018-04-12T10:08:58.287Z,7688.00
2018-04-12T10:09:58.164Z,7808.00
2018-04-12T10:10:58.102Z,7428.00
2018-04-12T10:11:58.025Z,7420.00
2018-04-12T10:12:57.953Z,7460.00
2018-04-12T10:13:57.884Z,7312.00
2018-04-12T10:14:57.815Z,7196.00
2018-04-12T10:15:57.745Z,7020.00
2018-04-12T10:16:57.748Z,7060.00
2018-04-12T10:17:57.603Z,7240.00
2018-04-12T10:18:57.542Z,7680.00
2018-04-12T10:19:57.470Z,8016.00
2018-04-12T10:20:57.442Z,8324.00
2018-04-12T10:21:57.335Z,8544.00
2018-04-12T10:22:57.320Z,8736.00
2018-04-12T10:23:57.186Z,8528.00
2018-04-12T10:24:57.116Z,8340.00
2018-04-12T10:25:57.051Z,8260.00
2018-04-12T10:26:56.982Z,8052.00
2018-04-12T10:27:56.924Z,7944.00
2018-04-12T10:28:56.839Z,7576.00
2018-04-12T10:29:56.771Z,7192.00
2018-04-12T10:30:56.701Z,6748.00
2018-04-12T10:31:56.630Z,6276.00
2018-04-12T10:32:56.562Z,6172.00
2018-04-12T10:33:56.495Z,6976.00
2018-04-12T10:34:56.427Z,6768.00
2018-04-12T10:35:56.358Z,7056.00
2018-04-12T10:36:56.299Z,6960.00
2018-04-12T10:37:56.220Z,6596.00
2018-04-12T10:38:56.232Z,6012.00
2018-04-12T10:39:56.079Z,6016.00
2018-04-12T10:40:56.010Z,6348.00
2018-04-12T10:41:55.956Z,6712.00
2018-04-12T10:42:55.875Z,7076.00
2018-04-12T10:43:55.803Z,7588.00
2018-04-12T10:44:55.736Z,8048.00
2018-04-12T10:45:55.670Z,8148.00
2018-04-12T10:46:55.598Z,8228.00
2018-04-12T10:47:55.585Z,7464.00
2018-04-12T10:48:55.466Z,7712.00
2018-04-12T10:49:55.395Z,8228.00
2018-04-12T10:50:55.322Z,8652.00
2018-04-12T10:51:55.310Z,8912.00
2018-04-12T10:52:55.182Z,9548.00
2018-04-12T10:53:55.115Z,9776.00
2018-04-12T10:54:55.048Z,9548.00
2018-04-12T10:55:54.989Z,9984.00
2018-04-12T10:56:54.912Z,9300.00
2018-04-12T10:57:54.841Z,9548.00
2018-04-12T10:58:54.772Z,9584.00
2018-04-12T10:59:54.703Z,8992.00
2018-04-12T11:00:54.634Z,8664.00
2018-04-12T11:01:54.565Z,8648.00
2018-04-12T11:02:54.500Z,8368.00
2018-04-12T11:03:54.431Z,8072.00
2018-04-12T11:04:54.412Z,7868.00
2018-04-12T11:05:54.305Z,7672.00
2018-04-12T11:06:54.249Z,7532.00
2018-04-12T11:07:54.238Z,7376.00
2018-04-12T11:08:54.458Z,7180.00
2018-04-12T11:09:54.022Z,7160.00
2018-04-12T11:10:53.952Z,7200.00
2018-04-12T11:11:53.903Z,7388.00
2018-04-12T11:12:53.816Z,7796.00
2018-04-12T11:13:53.776Z,8228.00
2018-04-12T11:14:53.681Z,8396.00
2018-04-12T11:15:53.613Z,8624.00
2018-04-12T11:16:53.542Z,9188.00
2018-04-12T11:17:53.476Z,9652.00
2018-04-12T11:18:53.406Z,9840.00
2018-04-12T11:19:53.349Z,9524.00
2018-04-12T11:20:53.270Z,9332.00
2018-04-12T11:21:53.209Z,9272.00
2018-04-12T11:22:53.134Z,9404.00
2018-04-12T11:23:53.070Z,9468.00
2018-04-12T11:24:53.018Z,9372.00
2018-04-12T11:25:52.935Z,9228.00
2018-04-12T11:26:52.862Z,8992.00
2018-04-12T11:27:52.794Z,8828.00
2018-04-12T11:28:52.726Z,8748.00
2018-04-12T11:29:52.683Z,8692.00
2018-04-12T11:30:52.590Z,8736.00
2018-04-12T11:31:52.522Z,9088.00
2018-04-12T11:32:52.459Z,9544.00
2018-04-12T11:33:52.389Z,9628.00
2018-04-12T11:34:52.328Z,9940.00
2018-04-12T11:35:52.252Z,10308.00
2018-04-12T11:36:52.185Z,9984.00
2018-04-12T11:37:52.115Z,8788.00
2018-04-12T11:38:52.047Z,8124.00
2018-04-12T11:39:51.993Z,7920.00
2018-04-12T11:40:51.926Z,7800.00
2018-04-12T11:41:51.843Z,7712.00
2018-04-12T11:42:51.838Z,7648.00
2018-04-12T11:43:51.709Z,7376.00
2018-04-12T11:44:51.654Z,7016.00
2018-04-12T11:45:51.575Z,6356.00
2018-04-12T11:46:51.530Z,5604.00
2018-04-12T11:47:51.455Z,5136.00
2018-04-12T11:48:51.371Z,4916.00
2018-04-12T11:49:51.335Z,4864.00
2018-04-12T11:50:51.264Z,4900.00
2018-04-12T11:51:51.209Z,4956.00
2018-04-12T11:52:51.152Z,5020.00
2018-04-12T11:53:51.031Z,5112.00
2018-04-12T11:54:50.964Z,5204.00
2018-04-12T11:55:50.921Z,5240.00
2018-04-12T11:56:50.833Z,5256.00
2018-04-12T11:57:50.763Z,5360.00
2018-04-12T11:58:50.694Z,5532.00
2018-04-12T11:59:50.625Z,5668.00
2018-04-12T12:00:50.561Z,5780.00
2018-04-12T12:01:50.500Z,5664.00
2018-04-12T12:02:50.421Z,5556.00
2018-04-12T12:03:50.350Z,5580.00
2018-04-12T12:04:50.285Z,5808.00
2018-04-12T12:05:50.216Z,6300.00
2018-04-12T12:06:50.152Z,6940.00
2018-04-12T12:07:50.080Z,7692.00
2018-04-12T12:08:50.012Z,7504.00
2018-04-12T12:09:49.942Z,7664.00
2018-04-12T12:10:49.871Z,9056.00
2018-04-12T12:11:49.805Z,11052.00
2018-04-12T12:12:49.733Z,11344.00
2018-04-12T12:13:49.669Z,8940.00
2018-04-12T12:14:49.598Z,10792.00
2018-04-12T12:15:49.529Z,11348.00
2018-04-12T12:16:49.463Z,12028.00
2018-04-12T12:17:49.444Z,12772.00
2018-04-12T12:18:49.325Z,9136.00
2018-04-12T12:19:49.259Z,6472.00
2018-04-12T12:20:49.191Z,5612.00
2018-04-12T12:21:49.119Z,5368.00
2018-04-12T12:22:49.054Z,5088.00
2018-04-12T12:23:49.082Z,4940.00
2018-04-12T12:24:48.914Z,4936.00
2018-04-12T12:25:48.848Z,4972.00
2018-04-12T12:26:48.782Z,5052.00
2018-04-12T12:27:48.717Z,5124.00
2018-04-12T12:28:48.694Z,5184.00
2018-04-12T12:29:48.577Z,5264.00
2018-04-12T12:30:48.504Z,5228.00
2018-04-12T12:31:48.436Z,5148.00
2018-04-12T12:32:48.366Z,5092.00